Sammamish, WA

10:11 AM PDT on September 02, 2015 (GMT -0700)
Timberline | | Change Station
CLOSE
Current Station
Personal Weather Station
Location: Sammamish, WA
Elevation: 449 ft
Nearby Weather Stations

Elev 449 ft 47.65 °N, 122.06 °W | Updated 1 minute ago

Partly Cloudy
Partly Cloudy
53.2 °F
Feels Like 53.2 °F
N
0.0
Wind Variable Wind from SE
Gusts 0.7 mph

Today
High -- | Low -- °F
--% Chance of Precip.
Yesterday
High -- | Low -- °F
Precip. -- in
6:27 AM 7:46 PM
Waning Gibbous, 79% visible
Pressure 29.91 in
Visibility 10.0 miles
Clouds Few 2700 ft
Few 3500 ft
Dew Point 52 °F
Humidity 95%
Rainfall 0.09 in
Snow Depth Not available.
UV 3 out of 12
Pollen .50 out of 12
Air Quality Not available.
Flu Activity Not available.
METAR KRNT 021653Z 18007KT 10SM FEW027 FEW035 16/10 A2989 RMK AO2 SLP127 T01610100
Pressure 29.91 in
Visibility 10.0 miles
Clouds Few 2700 ft
Few 3500 ft
Dew Point 52 °F
Humidity 95%
Rainfall 0.09 in
Snow Depth Not available.
UV 3 out of 12
Pollen .50 out of 12
Air Quality Not available.
Flu Activity Not available.
METAR KRNT 021653Z 18007KT 10SM FEW027 FEW035 16/10 A2989 RMK AO2 SLP127 T01610100

10-Day Weather Forecast

×

Almanac

Astronomy

Sep. 02, 2015 Rise Set
Actual Time
Civil Twilight
Nautical Twilight
Astronomical Twilight
Moon
Length of Visible Light
Length of Day
Tomorrow will be .
, % of the Moon is Illuminated

Today's Extremes

State Highs State Lows

Community

WunderPhotos

Upload Photos

1,851,785 photos uploaded!

WunderBlogs® & News

Nearby

Air Quality

  Air Quality AQ Index Pollutant
Not available.

Snow Depth

Station Depth Elevation

Earthquake Activity

City Distance Mag. Time & Date
Minimum magnitude displayed is 2.5.

Coastal Water Temperatures

Place Temperature

Stations

Nearby Weather Stations

Station Location Temp. Windchill Dew Point Humidity Wind Precip. Elev Updated Type